createdAt,value
2019-05-19T00:02:07.809Z,14.00
2019-05-19T00:04:35.200Z,14.00
2019-05-19T00:07:02.632Z,14.00
2019-05-19T00:09:30.296Z,14.00
2019-05-19T00:11:57.689Z,14.00
2019-05-19T00:14:25.197Z,13.90
2019-05-19T00:16:52.909Z,14.00
2019-05-19T00:19:26.681Z,14.00
2019-05-19T00:21:49.730Z,13.90
2019-05-19T00:24:17.135Z,13.90
2019-05-19T00:26:44.525Z,13.80
2019-05-19T00:29:11.976Z,13.70
2019-05-19T00:31:39.371Z,13.70
2019-05-19T00:34:06.955Z,13.60
2019-05-19T00:36:34.704Z,13.60
2019-05-19T00:39:02.196Z,13.60
2019-05-19T00:41:29.584Z,13.60
2019-05-19T00:43:57.044Z,13.60
2019-05-19T00:46:24.434Z,13.70
2019-05-19T00:48:51.827Z,13.70
2019-05-19T00:51:19.891Z,13.70
2019-05-19T00:53:47.277Z,13.60
2019-05-19T00:56:14.971Z,13.70
2019-05-19T00:58:42.933Z,13.60
2019-05-19T01:01:10.382Z,13.60
2019-05-19T01:03:37.749Z,13.60
2019-05-19T01:06:05.155Z,13.50
2019-05-19T01:08:32.856Z,13.50
2019-05-19T01:11:00.656Z,13.50
2019-05-19T01:13:28.179Z,13.60
2019-05-19T01:15:55.567Z,13.50
2019-05-19T01:18:22.958Z,13.50
2019-05-19T01:20:50.563Z,13.50
2019-05-19T01:23:18.049Z,13.40
2019-05-19T01:25:45.450Z,13.40
2019-05-19T01:28:13.224Z,13.50
2019-05-19T01:30:40.612Z,13.50
2019-05-19T01:33:08.000Z,13.50
2019-05-19T01:35:35.424Z,13.50
2019-05-19T01:38:02.833Z,13.40
2019-05-19T01:40:30.215Z,13.50
2019-05-19T01:42:57.671Z,13.50
2019-05-19T01:45:25.091Z,13.50
2019-05-19T01:47:52.489Z,13.40
2019-05-19T01:50:20.123Z,13.40
2019-05-19T01:52:47.516Z,13.40
2019-05-19T01:55:15.099Z,13.40
2019-05-19T01:57:42.540Z,13.40
2019-05-19T02:00:10.247Z,13.40
2019-05-19T02:02:37.681Z,13.40
2019-05-19T02:05:05.459Z,13.40
2019-05-19T02:07:32.917Z,13.30
2019-05-19T02:10:00.435Z,13.30
2019-05-19T02:12:28.172Z,13.30
2019-05-19T02:14:55.459Z,13.20
2019-05-19T02:17:22.852Z,13.20
2019-05-19T02:19:50.591Z,13.30
2019-05-19T02:22:17.996Z,13.30
2019-05-19T02:24:45.395Z,13.30
2019-05-19T02:27:12.968Z,13.20
2019-05-19T02:29:40.360Z,13.20
2019-05-19T02:32:07.745Z,13.20
2019-05-19T02:34:35.355Z,13.20
2019-05-19T02:37:04.186Z,13.10
2019-05-19T02:39:31.585Z,13.10
2019-05-19T02:42:01.593Z,13.10
2019-05-19T02:44:29.507Z,13.10
2019-05-19T02:46:58.308Z,13.00
2019-05-19T02:49:28.072Z,13.00
2019-05-19T02:51:56.772Z,12.90
2019-05-19T02:54:25.484Z,12.80
2019-05-19T02:56:53.263Z,12.90
2019-05-19T02:59:21.753Z,13.00
2019-05-19T03:02:03.737Z,12.90
2019-05-19T03:04:31.247Z,12.90
2019-05-19T03:06:58.648Z,12.80
2019-05-19T03:09:26.233Z,12.70
2019-05-19T03:11:53.807Z,12.60
2019-05-19T03:14:21.513Z,12.60
2019-05-19T03:16:49.123Z,12.50
2019-05-19T03:19:16.530Z,12.50
2019-05-19T03:21:43.915Z,12.40
2019-05-19T03:24:11.521Z,12.30
2019-05-19T03:26:38.907Z,12.20
2019-05-19T03:29:06.796Z,12.20
2019-05-19T03:31:41.802Z,12.20
2019-05-19T03:34:09.188Z,12.10
2019-05-19T03:36:36.573Z,12.00
2019-05-19T03:39:05.760Z,12.00
2019-05-19T03:41:33.149Z,12.10
2019-05-19T03:44:00.679Z,12.00
2019-05-19T03:46:28.114Z,12.00
2019-05-19T03:48:55.504Z,12.00
2019-05-19T03:51:31.182Z,12.00
2019-05-19T03:53:52.315Z,12.00
2019-05-19T03:56:19.715Z,11.90
2019-05-19T03:58:47.124Z,11.90
2019-05-19T04:01:14.733Z,11.90
2019-05-19T04:03:42.105Z,12.00
2019-05-19T04:06:09.508Z,12.00
2019-05-19T04:08:36.933Z,12.00
2019-05-19T04:11:04.515Z,12.10
2019-05-19T04:13:31.917Z,12.10
2019-05-19T04:16:00.036Z,12.10
2019-05-19T04:18:27.388Z,12.10
2019-05-19T04:20:54.784Z,12.10
2019-05-19T04:23:22.211Z,12.10
2019-05-19T04:25:49.621Z,12.20
2019-05-19T04:28:17.000Z,12.20
2019-05-19T04:30:44.559Z,12.20
2019-05-19T04:33:11.951Z,12.30
2019-05-19T04:35:39.344Z,12.40
2019-05-19T04:38:06.808Z,12.40
2019-05-19T04:40:34.192Z,12.50
2019-05-19T04:43:01.592Z,12.60
2019-05-19T04:45:29.026Z,12.70
2019-05-19T04:47:56.425Z,12.80
2019-05-19T04:50:23.831Z,12.90
2019-05-19T04:52:51.345Z,13.00
2019-05-19T04:55:18.747Z,13.10
2019-05-19T04:57:46.139Z,13.00
2019-05-19T05:00:13.899Z,13.10
2019-05-19T05:02:41.299Z,13.10
2019-05-19T05:05:08.915Z,13.10
2019-05-19T05:07:36.385Z,13.10
2019-05-19T05:10:05.290Z,13.10
2019-05-19T05:12:32.873Z,13.30
2019-05-19T05:15:00.626Z,13.40
2019-05-19T05:17:28.015Z,13.50
2019-05-19T05:19:55.420Z,13.60
2019-05-19T05:22:22.887Z,13.80
2019-05-19T05:24:50.276Z,13.90
2019-05-19T05:27:17.660Z,14.00
2019-05-19T05:29:45.296Z,14.10
2019-05-19T05:32:12.690Z,14.20
2019-05-19T05:34:40.084Z,14.30
2019-05-19T05:37:07.682Z,14.30
2019-05-19T05:39:35.087Z,14.30
2019-05-19T05:42:02.471Z,14.30
2019-05-19T05:44:29.955Z,14.40
2019-05-19T05:46:57.359Z,14.40
2019-05-19T05:49:24.810Z,14.50
2019-05-19T05:51:52.337Z,14.50
2019-05-19T05:54:19.744Z,14.60
2019-05-19T05:56:49.070Z,14.80
2019-05-19T05:59:16.646Z,14.90
2019-05-19T06:01:44.042Z,15.00
2019-05-19T06:04:11.439Z,15.20
2019-05-19T06:06:39.275Z,15.30
2019-05-19T06:09:06.897Z,15.40
2019-05-19T06:11:34.855Z,15.50
2019-05-19T06:14:02.575Z,15.70
2019-05-19T06:16:30.006Z,15.70
2019-05-19T06:18:57.403Z,15.80
2019-05-19T06:21:24.974Z,15.90
2019-05-19T06:23:52.375Z,16.00
2019-05-19T06:26:19.767Z,16.10
2019-05-19T06:28:47.353Z,16.10
2019-05-19T06:31:14.767Z,16.20
2019-05-19T06:33:43.963Z,16.30
2019-05-19T06:36:11.589Z,16.40
2019-05-19T06:38:39.066Z,16.50
2019-05-19T06:41:06.547Z,16.60
2019-05-19T06:43:34.487Z,16.50
2019-05-19T06:46:01.881Z,16.70
2019-05-19T06:48:29.304Z,16.70
2019-05-19T06:50:56.980Z,16.80
2019-05-19T06:53:24.383Z,16.90
2019-05-19T06:55:51.778Z,17.00
2019-05-19T06:58:19.232Z,17.10
2019-05-19T07:00:46.624Z,17.20
2019-05-19T07:03:14.025Z,17.30
2019-05-19T07:05:41.788Z,17.30
2019-05-19T07:08:09.183Z,17.30
2019-05-19T07:10:36.787Z,17.30
2019-05-19T07:13:05.054Z,17.30
2019-05-19T07:15:32.501Z,17.40
2019-05-19T07:17:59.905Z,17.40
2019-05-19T07:20:27.648Z,17.40
2019-05-19T07:22:55.581Z,17.50
2019-05-19T07:25:22.980Z,17.50
2019-05-19T07:27:50.763Z,17.50
2019-05-19T07:30:18.273Z,17.70
2019-05-19T07:32:45.707Z,17.70
2019-05-19T07:35:13.664Z,17.80
2019-05-19T07:37:41.054Z,17.80
2019-05-19T07:40:08.543Z,18.00
2019-05-19T07:42:35.993Z,18.00
2019-05-19T07:45:04.632Z,18.00
2019-05-19T07:47:32.048Z,18.10
2019-05-19T07:49:59.651Z,18.20
2019-05-19T07:52:27.062Z,18.20
2019-05-19T07:54:54.464Z,18.20
2019-05-19T07:57:21.902Z,18.30
2019-05-19T07:59:49.298Z,18.30
2019-05-19T08:02:16.691Z,18.40
2019-05-19T08:04:44.180Z,18.40
2019-05-19T08:07:11.595Z,18.50
2019-05-19T08:09:39.269Z,18.50
2019-05-19T08:12:06.903Z,18.50
2019-05-19T08:14:34.295Z,18.60
2019-05-19T08:17:01.710Z,18.60
2019-05-19T08:19:29.138Z,18.60
2019-05-19T08:21:56.576Z,18.70
2019-05-19T08:24:24.131Z,18.80
2019-05-19T08:26:51.683Z,18.90
2019-05-19T08:29:19.080Z,18.90
2019-05-19T08:31:46.507Z,18.90
2019-05-19T08:34:13.971Z,19.00
2019-05-19T08:36:41.379Z,19.10
2019-05-19T08:39:08.763Z,19.20
2019-05-19T08:41:36.189Z,19.20
2019-05-19T08:44:04.591Z,19.20
2019-05-19T08:46:32.629Z,19.30
2019-05-19T08:49:00.051Z,19.30
2019-05-19T08:51:27.531Z,19.50
2019-05-19T08:53:55.211Z,19.30
2019-05-19T08:56:22.619Z,19.30
2019-05-19T08:58:50.050Z,19.40
2019-05-19T09:01:17.481Z,19.50
2019-05-19T09:03:44.882Z,19.50
2019-05-19T09:06:12.283Z,19.50
2019-05-19T09:08:39.752Z,19.50
2019-05-19T09:11:07.352Z,19.60
2019-05-19T09:13:34.970Z,19.70
2019-05-19T09:16:02.797Z,19.60
2019-05-19T09:18:30.187Z,19.70
2019-05-19T09:20:57.583Z,19.80
2019-05-19T09:23:25.381Z,19.80
2019-05-19T09:25:52.779Z,19.90
2019-05-19T09:28:20.175Z,20.00
2019-05-19T09:30:47.754Z,20.20
2019-05-19T09:33:15.160Z,20.30
2019-05-19T09:35:42.591Z,20.30
2019-05-19T09:38:10.442Z,20.30
2019-05-19T09:40:37.787Z,20.30
2019-05-19T09:43:05.332Z,20.30
2019-05-19T09:45:32.824Z,20.40
2019-05-19T09:48:00.307Z,20.50
2019-05-19T09:50:27.656Z,20.50
2019-05-19T09:52:55.395Z,20.50
2019-05-19T09:55:22.867Z,20.60
2019-05-19T09:57:50.295Z,20.70
2019-05-19T10:00:19.175Z,20.80
2019-05-19T10:02:46.551Z,20.80
2019-05-19T10:05:14.268Z,20.90
2019-05-19T10:07:41.844Z,20.80
2019-05-19T10:10:12.682Z,21.00
2019-05-19T10:12:40.367Z,21.10
2019-05-19T10:15:10.274Z,21.30
2019-05-19T10:17:37.677Z,21.50
2019-05-19T10:20:07.693Z,21.50
2019-05-19T10:22:35.520Z,21.40
2019-05-19T10:25:20.458Z,21.50
2019-05-19T10:27:32.825Z,21.60
2019-05-19T10:30:00.435Z,21.70
2019-05-19T10:32:28.016Z,21.50
2019-05-19T10:34:55.451Z,21.40
2019-05-19T10:37:23.032Z,21.60
2019-05-19T10:39:50.484Z,21.60
2019-05-19T10:42:17.888Z,21.90
2019-05-19T10:44:45.310Z,22.00
2019-05-19T10:47:12.724Z,22.10
2019-05-19T10:49:42.930Z,22.30
2019-05-19T10:52:09.384Z,22.30
2019-05-19T10:54:36.788Z,22.30
2019-05-19T10:57:04.188Z,22.30
2019-05-19T10:59:31.755Z,22.30
2019-05-19T11:01:59.248Z,22.30
2019-05-19T11:04:26.656Z,22.20
2019-05-19T11:06:54.339Z,22.40
2019-05-19T11:09:21.753Z,22.50
2019-05-19T11:11:49.316Z,22.60
2019-05-19T11:14:17.344Z,22.80
2019-05-19T11:16:44.731Z,22.80
2019-05-19T11:19:12.123Z,22.90
2019-05-19T11:21:39.650Z,23.00
2019-05-19T11:24:07.027Z,23.20
2019-05-19T11:26:34.571Z,23.20
2019-05-19T11:29:02.119Z,23.20
2019-05-19T11:31:29.516Z,23.30
2019-05-19T11:33:59.094Z,23.20
2019-05-19T11:36:26.452Z,23.30
2019-05-19T11:38:53.845Z,23.40
2019-05-19T11:41:21.235Z,23.60
2019-05-19T11:43:48.562Z,23.70
2019-05-19T11:46:15.951Z,23.90
2019-05-19T11:48:43.355Z,24.00
2019-05-19T11:51:10.832Z,23.70
2019-05-19T11:53:38.176Z,23.40
2019-05-19T11:56:07.282Z,23.30
2019-05-19T11:58:34.883Z,23.10
2019-05-19T12:01:02.302Z,23.20
2019-05-19T12:03:29.701Z,23.30
2019-05-19T12:05:57.320Z,23.60
2019-05-19T12:08:24.714Z,23.50
2019-05-19T12:10:52.361Z,24.10
2019-05-19T12:13:19.899Z,24.40
2019-05-19T12:15:47.288Z,24.60
2019-05-19T12:18:14.693Z,24.70
2019-05-19T12:20:42.316Z,24.70
2019-05-19T12:23:09.719Z,25.00
2019-05-19T12:25:37.120Z,25.20
2019-05-19T12:28:04.702Z,25.60
2019-05-19T12:30:32.093Z,25.30
2019-05-19T12:32:59.529Z,25.20
2019-05-19T12:35:27.022Z,25.30
2019-05-19T12:37:54.417Z,25.20
2019-05-19T12:40:22.776Z,24.90
2019-05-19T12:42:50.367Z,24.80
2019-05-19T12:45:18.685Z,24.70
2019-05-19T12:47:46.088Z,24.30
2019-05-19T12:50:14.303Z,24.20
2019-05-19T12:52:41.737Z,24.00
2019-05-19T12:55:09.361Z,23.90
2019-05-19T12:57:36.784Z,23.80
2019-05-19T13:00:06.276Z,23.80
2019-05-19T13:02:33.674Z,23.80
2019-05-19T13:05:05.489Z,23.90
2019-05-19T13:07:30.377Z,24.00
2019-05-19T13:09:57.733Z,24.70
2019-05-19T13:12:25.164Z,24.40
2019-05-19T13:14:53.043Z,24.30
2019-05-19T13:17:20.445Z,24.20
2019-05-19T13:19:47.924Z,24.30
2019-05-19T13:22:15.320Z,24.20
2019-05-19T13:24:42.715Z,24.40
2019-05-19T13:27:10.235Z,24.30
2019-05-19T13:29:37.651Z,24.40
2019-05-19T13:32:05.062Z,24.50
2019-05-19T13:34:32.625Z,24.70
2019-05-19T13:37:00.033Z,24.80
2019-05-19T13:39:27.428Z,25.00
2019-05-19T13:41:54.871Z,25.00
2019-05-19T13:44:22.271Z,25.00
2019-05-19T13:46:49.689Z,25.00
2019-05-19T13:49:17.538Z,25.00
2019-05-19T13:51:44.891Z,25.00
2019-05-19T13:54:12.328Z,25.00
2019-05-19T13:56:39.756Z,24.90
2019-05-19T13:59:07.147Z,24.80
2019-05-19T14:01:34.550Z,24.80
2019-05-19T14:04:02.606Z,24.70
2019-05-19T14:06:30.003Z,24.60
2019-05-19T14:08:57.412Z,24.70
2019-05-19T14:11:24.852Z,24.80
2019-05-19T14:13:52.747Z,24.90
2019-05-19T14:16:20.138Z,24.90
2019-05-19T14:18:47.576Z,25.10
2019-05-19T14:21:14.995Z,25.20
2019-05-19T14:23:42.402Z,25.30
2019-05-19T14:26:09.842Z,25.20
2019-05-19T14:28:37.263Z,25.20
2019-05-19T14:31:04.685Z,25.20
2019-05-19T14:33:32.115Z,25.00
2019-05-19T14:35:59.504Z,24.90
2019-05-19T14:38:26.904Z,24.90
2019-05-19T14:40:54.329Z,24.80
2019-05-19T14:43:22.193Z,24.60
2019-05-19T14:45:50.701Z,24.50
2019-05-19T14:48:18.146Z,24.20
2019-05-19T14:50:45.548Z,23.70
2019-05-19T14:53:12.943Z,22.90
2019-05-19T14:55:40.638Z,22.20
2019-05-19T14:58:08.045Z,21.60
2019-05-19T15:00:35.465Z,21.40
2019-05-19T15:03:02.911Z,20.80
2019-05-19T15:05:30.296Z,20.40
2019-05-19T15:07:57.817Z,20.20
2019-05-19T15:10:25.284Z,20.10
2019-05-19T15:12:53.363Z,20.00
2019-05-19T15:15:20.787Z,20.10
2019-05-19T15:17:48.202Z,20.10
2019-05-19T15:20:16.064Z,20.10
2019-05-19T15:22:43.466Z,20.10
2019-05-19T15:25:11.422Z,20.20
2019-05-19T15:27:39.058Z,20.20
2019-05-19T15:30:13.138Z,20.40
2019-05-19T15:32:35.672Z,20.70
2019-05-19T15:35:03.704Z,20.80
2019-05-19T15:37:31.140Z,21.00
2019-05-19T15:39:58.551Z,21.20
2019-05-19T15:42:26.192Z,21.20
2019-05-19T15:44:53.593Z,21.00
2019-05-19T15:47:21.027Z,21.10
2019-05-19T15:49:48.580Z,21.20
2019-05-19T15:52:15.971Z,21.50
2019-05-19T15:54:43.363Z,21.50
2019-05-19T15:57:11.267Z,21.60
2019-05-19T15:59:38.691Z,21.60
2019-05-19T16:02:06.091Z,21.50
2019-05-19T16:04:33.656Z,21.30
2019-05-19T16:07:01.090Z,21.20
2019-05-19T16:09:28.515Z,21.10
2019-05-19T16:11:55.972Z,21.20
2019-05-19T16:14:23.732Z,20.90
2019-05-19T16:16:51.136Z,20.90
2019-05-19T16:19:18.574Z,20.90
2019-05-19T16:21:45.976Z,20.90
2019-05-19T16:24:13.369Z,21.00
2019-05-19T16:26:40.839Z,20.90
2019-05-19T16:29:08.240Z,20.90
2019-05-19T16:31:35.647Z,20.90
2019-05-19T16:34:03.411Z,20.90
2019-05-19T16:36:30.810Z,20.90
2019-05-19T16:38:58.210Z,20.90
2019-05-19T16:41:25.787Z,21.00
2019-05-19T16:43:53.198Z,20.90
2019-05-19T16:46:20.615Z,20.70
2019-05-19T16:48:48.178Z,20.70
2019-05-19T16:51:15.576Z,20.70
2019-05-19T16:53:44.791Z,20.60
2019-05-19T16:56:12.260Z,20.60
2019-05-19T16:58:45.152Z,20.40
2019-05-19T17:01:08.881Z,20.50
2019-05-19T17:03:36.313Z,20.30
2019-05-19T17:06:03.745Z,20.40
2019-05-19T17:08:31.139Z,20.30
2019-05-19T17:10:59.127Z,20.30
2019-05-19T17:13:26.820Z,20.20
2019-05-19T17:15:54.229Z,20.20
2019-05-19T17:18:21.667Z,20.10
2019-05-19T17:20:49.064Z,19.90
2019-05-19T17:23:16.476Z,19.80
2019-05-19T17:25:43.940Z,19.70
2019-05-19T17:28:11.339Z,19.60
2019-05-19T17:30:38.761Z,19.50
2019-05-19T17:33:06.432Z,19.50
2019-05-19T17:35:33.828Z,19.40
2019-05-19T17:38:01.256Z,19.20
2019-05-19T17:40:28.875Z,19.10
2019-05-19T17:42:56.272Z,19.00
2019-05-19T17:45:23.695Z,18.90
2019-05-19T17:47:53.390Z,18.90
2019-05-19T17:50:31.381Z,18.80
2019-05-19T17:52:58.911Z,18.60
2019-05-19T17:55:26.499Z,18.50
2019-05-19T17:57:55.997Z,18.40
2019-05-19T18:00:33.499Z,18.40
2019-05-19T18:03:00.908Z,18.30
2019-05-19T18:05:28.332Z,18.30
2019-05-19T18:07:57.687Z,18.20
2019-05-19T18:10:24.964Z,18.20
2019-05-19T18:12:52.672Z,18.20
2019-05-19T18:15:20.079Z,18.10
2019-05-19T18:17:47.492Z,18.00
2019-05-19T18:20:23.467Z,17.80
2019-05-19T18:22:44.321Z,17.70
2019-05-19T18:25:11.729Z,17.70
2019-05-19T18:27:41.001Z,17.70
2019-05-19T18:30:08.824Z,17.70
2019-05-19T18:32:36.334Z,17.60
2019-05-19T18:35:04.284Z,17.60
2019-05-19T18:37:31.869Z,17.60
2019-05-19T18:39:59.288Z,17.40
2019-05-19T18:42:26.772Z,17.30
2019-05-19T18:44:54.760Z,17.20
2019-05-19T18:47:22.258Z,17.00
2019-05-19T18:49:49.861Z,16.90
2019-05-19T18:52:17.276Z,16.80
2019-05-19T18:54:44.697Z,16.70
2019-05-19T18:57:12.347Z,16.70
2019-05-19T18:59:47.430Z,16.70
2019-05-19T19:02:09.385Z,16.70
2019-05-19T19:04:37.088Z,16.70
2019-05-19T19:07:04.505Z,16.70
2019-05-19T19:09:31.931Z,16.60
2019-05-19T19:12:01.294Z,16.60
2019-05-19T19:14:30.152Z,16.40
2019-05-19T19:16:57.564Z,16.30
2019-05-19T19:19:25.152Z,16.30
2019-05-19T19:21:52.576Z,16.30
2019-05-19T19:24:19.991Z,16.20
2019-05-19T19:26:47.541Z,16.20
2019-05-19T19:29:15.229Z,16.00
2019-05-19T19:31:48.589Z,16.10
2019-05-19T19:34:11.998Z,16.10
2019-05-19T19:36:39.405Z,16.10
2019-05-19T19:39:06.916Z,16.10
2019-05-19T19:41:34.871Z,16.10
2019-05-19T19:44:02.209Z,16.10
2019-05-19T19:46:29.620Z,16.10
2019-05-19T19:48:57.059Z,16.00
2019-05-19T19:51:24.470Z,16.00
2019-05-19T19:53:51.912Z,15.90
2019-05-19T19:56:19.488Z,15.90
2019-05-19T19:58:46.895Z,15.90
2019-05-19T20:01:14.582Z,15.80
2019-05-19T20:03:42.069Z,15.80
2019-05-19T20:06:09.484Z,15.80
2019-05-19T20:08:36.888Z,15.80
2019-05-19T20:11:04.770Z,15.70
2019-05-19T20:13:32.698Z,15.70
2019-05-19T20:16:00.100Z,15.70
2019-05-19T20:18:27.608Z,15.70
2019-05-19T20:20:55.051Z,15.70
2019-05-19T20:23:22.480Z,15.70
2019-05-19T20:25:49.987Z,15.70
2019-05-19T20:28:17.435Z,15.60
2019-05-19T20:30:44.833Z,15.60
2019-05-19T20:33:12.267Z,15.60
2019-05-19T20:35:39.707Z,15.70
2019-05-19T20:38:07.144Z,15.70
2019-05-19T20:40:34.610Z,15.80
2019-05-19T20:43:02.199Z,15.80
2019-05-19T20:45:29.663Z,15.90
2019-05-19T20:47:57.251Z,15.90
2019-05-19T20:50:24.654Z,15.90
2019-05-19T20:52:52.051Z,15.90
2019-05-19T20:55:19.649Z,15.90
2019-05-19T20:57:47.084Z,15.80
2019-05-19T21:00:14.815Z,15.90
2019-05-19T21:02:42.443Z,15.90
2019-05-19T21:05:09.942Z,15.90
2019-05-19T21:07:38.457Z,15.80
2019-05-19T21:10:06.333Z,15.80
2019-05-19T21:12:34.049Z,15.80
2019-05-19T21:15:02.561Z,15.80
2019-05-19T21:17:29.973Z,15.70
2019-05-19T21:19:57.383Z,15.80
2019-05-19T21:22:25.013Z,15.60
2019-05-19T21:24:52.411Z,15.60
2019-05-19T21:27:19.844Z,15.50
2019-05-19T21:29:47.395Z,15.50
2019-05-19T21:32:14.804Z,15.40
2019-05-19T21:34:42.208Z,15.40
2019-05-19T21:37:09.719Z,15.30
2019-05-19T21:39:37.119Z,15.30
2019-05-19T21:42:04.827Z,15.30
2019-05-19T21:44:32.675Z,15.20
2019-05-19T21:47:00.083Z,15.20
2019-05-19T21:49:27.481Z,15.10
2019-05-19T21:51:54.944Z,15.00
2019-05-19T21:54:22.349Z,15.00
2019-05-19T21:56:49.752Z,14.90
2019-05-19T21:59:17.347Z,14.90
2019-05-19T22:01:44.757Z,14.80
2019-05-19T22:04:12.167Z,14.70
2019-05-19T22:06:41.786Z,14.60
2019-05-19T22:09:09.195Z,14.50
2019-05-19T22:11:36.603Z,14.50
2019-05-19T22:14:04.035Z,14.40
2019-05-19T22:16:31.853Z,14.40
2019-05-19T22:18:59.243Z,14.50
2019-05-19T22:21:26.763Z,14.50
2019-05-19T22:23:54.167Z,14.50
2019-05-19T22:26:21.564Z,14.50
2019-05-19T22:28:49.081Z,14.50
2019-05-19T22:31:16.526Z,14.50
2019-05-19T22:33:43.915Z,14.50
2019-05-19T22:36:11.535Z,14.60
2019-05-19T22:38:38.939Z,14.60
2019-05-19T22:41:06.328Z,14.60
2019-05-19T22:43:33.930Z,14.60
2019-05-19T22:46:01.329Z,14.60
2019-05-19T22:48:28.738Z,14.70
2019-05-19T22:50:56.227Z,14.60
2019-05-19T22:53:23.639Z,14.60
2019-05-19T22:55:50.932Z,14.60
2019-05-19T22:58:18.590Z,14.60
2019-05-19T23:00:46.063Z,14.60
2019-05-19T23:03:13.465Z,14.60
2019-05-19T23:05:40.897Z,14.50
2019-05-19T23:08:08.295Z,14.50
2019-05-19T23:10:35.695Z,14.50
2019-05-19T23:13:03.363Z,14.40
2019-05-19T23:15:31.571Z,14.40
2019-05-19T23:17:58.995Z,14.50
2019-05-19T23:20:26.423Z,14.40
2019-05-19T23:22:53.808Z,14.50
2019-05-19T23:25:21.220Z,14.50
2019-05-19T23:27:48.855Z,14.60
2019-05-19T23:30:16.364Z,14.60
2019-05-19T23:32:43.758Z,14.50
2019-05-19T23:35:11.543Z,14.50
2019-05-19T23:37:38.990Z,14.50
2019-05-19T23:40:06.583Z,14.50
2019-05-19T23:42:34.507Z,14.50
2019-05-19T23:45:01.921Z,14.50
2019-05-19T23:47:29.399Z,14.50
2019-05-19T23:49:56.843Z,14.50
2019-05-19T23:52:24.233Z,14.50
2019-05-19T23:54:51.623Z,14.40
2019-05-19T23:57:19.067Z,14.40
2019-05-19T23:59:46.461Z,14.40
